createdAt,value
2023-01-31T00:01:43.962Z,3.08
2023-01-31T00:06:51.191Z,3.20
2023-01-31T00:11:53.433Z,3.17
2023-01-31T00:16:55.394Z,3.22
2023-01-31T00:21:57.708Z,3.23
2023-01-31T00:26:59.719Z,3.19
2023-01-31T00:32:01.633Z,3.06
2023-01-31T00:37:03.427Z,3.20
2023-01-31T00:42:07.612Z,3.31
2023-01-31T00:47:09.285Z,3.08
2023-01-31T00:52:10.947Z,3.00
2023-01-31T00:57:12.681Z,2.78
2023-01-31T01:02:15.059Z,2.74
2023-01-31T01:07:16.841Z,2.66
2023-01-31T01:12:18.645Z,2.69
2023-01-31T01:17:20.697Z,2.47
2023-01-31T01:22:24.060Z,2.29
2023-01-31T01:27:27.327Z,2.34
2023-01-31T01:32:29.769Z,2.46
2023-01-31T01:37:31.656Z,2.24
2023-01-31T01:42:36.321Z,1.99
2023-01-31T01:48:06.907Z,1.91
2023-01-31T01:53:17.818Z,2.17
2023-01-31T01:58:24.435Z,2.18
2023-01-31T02:03:27.315Z,2.31
2023-01-31T02:08:32.252Z,2.48
2023-01-31T02:13:34.570Z,2.46
2023-01-31T02:18:36.332Z,2.36
2023-01-31T02:23:40.993Z,2.56
2023-01-31T02:28:55.020Z,2.67
2023-01-31T02:34:07.821Z,2.75
2023-01-31T02:39:24.614Z,2.85
2023-01-31T02:44:59.243Z,2.71
2023-01-31T02:50:19.468Z,2.66
2023-01-31T02:55:56.467Z,2.66
2023-01-31T03:01:04.164Z,2.75
2023-01-31T03:06:24.745Z,2.70
2023-01-31T03:11:47.857Z,2.75
2023-01-31T03:17:21.644Z,2.72
2023-01-31T03:22:31.677Z,2.78
2023-01-31T03:27:34.990Z,2.69
2023-01-31T03:32:51.520Z,2.64
2023-01-31T03:38:17.656Z,2.60
2023-01-31T03:43:27.179Z,2.44
2023-01-31T03:48:37.183Z,1.99
2023-01-31T03:53:46.796Z,1.97
2023-01-31T03:58:53.815Z,1.86
2023-01-31T04:03:58.423Z,1.88
2023-01-31T04:09:00.607Z,1.72
2023-01-31T04:14:02.364Z,1.65
2023-01-31T04:19:04.079Z,1.80
2023-01-31T04:24:06.115Z,1.93
2023-01-31T04:29:08.017Z,2.17
2023-01-31T04:34:10.295Z,2.33
2023-01-31T04:39:13.663Z,2.37
2023-01-31T04:44:16.692Z,2.49
2023-01-31T04:49:18.375Z,2.48
2023-01-31T04:54:20.350Z,2.50
2023-01-31T04:59:22.035Z,2.62
2023-01-31T05:04:23.784Z,2.56
2023-01-31T05:09:26.077Z,2.51
2023-01-31T05:14:28.058Z,2.37
2023-01-31T05:19:30.113Z,2.50
2023-01-31T05:24:33.683Z,2.61
2023-01-31T05:29:35.468Z,2.64
2023-01-31T05:34:37.416Z,2.66
2023-01-31T05:39:39.222Z,2.74
2023-01-31T05:44:40.930Z,2.58
2023-01-31T05:49:42.584Z,2.57
2023-01-31T05:54:44.258Z,2.76
2023-01-31T05:59:45.950Z,2.62
2023-01-31T06:04:47.725Z,2.66
2023-01-31T06:09:49.517Z,2.71
2023-01-31T06:15:16.172Z,2.63
2023-01-31T06:20:18.148Z,2.67
2023-01-31T06:25:20.103Z,2.66
2023-01-31T06:30:21.985Z,2.52
2023-01-31T06:35:23.660Z,2.59
2023-01-31T06:40:25.563Z,2.58
2023-01-31T06:45:27.353Z,2.43
2023-01-31T06:50:29.041Z,2.27
2023-01-31T06:55:30.805Z,2.42
2023-01-31T07:00:32.915Z,2.46
2023-01-31T07:05:34.711Z,2.59
2023-01-31T07:10:36.401Z,2.64
2023-01-31T07:15:38.129Z,2.70
2023-01-31T07:20:40.966Z,2.80
2023-01-31T07:25:42.712Z,2.73
2023-01-31T07:30:46.205Z,2.89
2023-01-31T07:35:48.044Z,2.89
2023-01-31T07:40:50.331Z,2.85
2023-01-31T07:45:52.294Z,2.88
2023-01-31T07:51:02.057Z,2.71
2023-01-31T07:56:14.258Z,2.80
2023-01-31T08:01:42.514Z,2.88
2023-01-31T08:06:46.305Z,2.96
2023-01-31T08:11:48.182Z,3.03
2023-01-31T08:16:49.900Z,3.18
2023-01-31T08:21:51.611Z,3.34
2023-01-31T08:26:53.638Z,3.52
2023-01-31T08:31:55.443Z,3.54
2023-01-31T08:36:57.325Z,3.56
2023-01-31T08:41:59.012Z,3.39
2023-01-31T08:47:02.327Z,3.42
2023-01-31T08:52:04.365Z,3.42
2023-01-31T08:57:06.128Z,3.56
2023-01-31T09:02:11.188Z,3.58
2023-01-31T09:07:12.851Z,3.68
2023-01-31T09:12:14.475Z,3.77
2023-01-31T09:17:16.168Z,3.72
2023-01-31T09:22:18.036Z,3.86
2023-01-31T09:27:19.722Z,3.94
2023-01-31T09:32:21.385Z,4.08
2023-01-31T09:37:23.106Z,4.07
2023-01-31T09:42:31.913Z,4.18
2023-01-31T09:47:38.095Z,4.34
2023-01-31T09:52:39.781Z,4.32
2023-01-31T09:57:56.878Z,4.35
2023-01-31T10:03:18.435Z,4.48
2023-01-31T10:08:54.409Z,4.65
2023-01-31T10:14:05.113Z,4.66
2023-01-31T10:19:12.510Z,4.62
2023-01-31T10:24:46.314Z,4.63
2023-01-31T10:29:54.133Z,4.63
2023-01-31T10:35:21.913Z,4.64
2023-01-31T10:40:35.763Z,4.47
2023-01-31T10:45:38.567Z,4.40
2023-01-31T10:50:48.655Z,4.45
2023-01-31T10:56:13.479Z,4.47
2023-01-31T11:01:15.332Z,4.36
2023-01-31T11:06:17.630Z,4.43
2023-01-31T11:11:22.961Z,4.36
2023-01-31T11:16:28.229Z,4.42
2023-01-31T11:21:34.183Z,4.46
2023-01-31T11:26:39.084Z,4.51
2023-01-31T11:31:43.171Z,4.62
2023-01-31T11:36:46.535Z,4.77
2023-01-31T11:41:48.534Z,4.87
2023-01-31T11:46:54.512Z,4.89
2023-01-31T11:51:59.370Z,4.90
2023-01-31T11:57:02.049Z,5.03
2023-01-31T12:02:04.749Z,5.18
2023-01-31T12:07:22.407Z,5.14
2023-01-31T12:12:31.391Z,5.37
2023-01-31T12:17:42.896Z,5.49
2023-01-31T12:23:06.446Z,5.42
2023-01-31T12:28:37.793Z,5.62
2023-01-31T12:34:10.548Z,5.39
2023-01-31T12:39:44.274Z,5.13
2023-01-31T12:44:51.302Z,5.00
2023-01-31T12:50:17.393Z,4.69
2023-01-31T12:55:47.740Z,4.64
2023-01-31T13:00:56.595Z,4.58
2023-01-31T13:06:06.993Z,4.46
2023-01-31T13:11:13.856Z,4.46
2023-01-31T13:16:41.789Z,4.38
2023-01-31T13:21:49.028Z,4.33
2023-01-31T13:26:54.927Z,4.17
2023-01-31T13:32:25.604Z,4.00
2023-01-31T13:37:30.475Z,3.82
2023-01-31T13:42:33.256Z,3.77
2023-01-31T13:47:48.018Z,3.57
2023-01-31T13:52:57.005Z,3.54
2023-01-31T13:58:06.061Z,3.54
2023-01-31T14:03:16.831Z,3.58
2023-01-31T14:08:38.964Z,3.59
2023-01-31T14:13:43.903Z,3.51
2023-01-31T14:18:46.760Z,3.46
2023-01-31T14:23:48.569Z,3.49
2023-01-31T14:28:50.800Z,3.49
2023-01-31T14:33:57.434Z,3.52
2023-01-31T14:39:53.700Z,3.46
2023-01-31T14:44:59.385Z,3.41
2023-01-31T14:57:46.009Z,3.42
2023-01-31T15:02:47.951Z,3.44
2023-01-31T15:08:01.923Z,3.37
2023-01-31T15:13:04.031Z,3.38
2023-01-31T15:18:22.102Z,3.27
2023-01-31T15:23:27.664Z,3.15
2023-01-31T15:28:34.810Z,3.12
2023-01-31T15:33:41.377Z,3.15
2023-01-31T15:39:16.902Z,3.10
2023-01-31T15:44:24.002Z,3.12
2023-01-31T15:49:40.778Z,3.11
2023-01-31T15:55:00.059Z,3.06
2023-01-31T16:00:02.112Z,3.00
2023-01-31T16:05:09.687Z,2.83
2023-01-31T16:10:13.268Z,2.81
2023-01-31T16:15:21.884Z,2.80
2023-01-31T16:20:57.822Z,2.76
2023-01-31T16:26:08.625Z,2.78
2023-01-31T16:31:13.921Z,2.82
2023-01-31T16:36:20.679Z,2.90
2023-01-31T16:41:42.935Z,2.98
2023-01-31T16:46:46.506Z,3.02
2023-01-31T16:51:49.411Z,3.01
2023-01-31T16:57:03.007Z,3.04
2023-01-31T17:02:17.926Z,3.00
2023-01-31T17:07:27.316Z,2.96
2023-01-31T17:12:32.531Z,2.94
2023-01-31T17:17:37.318Z,2.91
2023-01-31T17:22:39.180Z,3.06
2023-01-31T17:27:41.146Z,3.06
2023-01-31T17:32:42.955Z,3.10
2023-01-31T17:37:45.339Z,3.27
2023-01-31T17:42:47.175Z,3.28
2023-01-31T17:47:49.062Z,3.29
2023-01-31T17:52:51.398Z,3.34
2023-01-31T17:57:53.235Z,3.39
2023-01-31T18:02:54.954Z,3.41
2023-01-31T18:07:56.646Z,3.49
2023-01-31T18:12:58.436Z,3.65
2023-01-31T18:18:00.824Z,3.76
2023-01-31T18:23:02.535Z,3.83
2023-01-31T18:28:04.408Z,3.89
2023-01-31T18:33:06.127Z,3.93
2023-01-31T18:38:08.689Z,4.00
2023-01-31T18:43:10.656Z,4.08
2023-01-31T18:48:12.440Z,4.15
2023-01-31T18:53:14.164Z,4.15
2023-01-31T18:58:16.531Z,4.18
2023-01-31T19:03:18.243Z,4.14
2023-01-31T19:08:19.972Z,4.15
2023-01-31T19:13:25.756Z,4.16
2023-01-31T19:18:27.562Z,4.08
2023-01-31T19:23:29.396Z,4.08
2023-01-31T19:28:31.684Z,4.15
2023-01-31T19:33:34.448Z,4.18
2023-01-31T19:38:36.139Z,4.23
2023-01-31T19:43:38.178Z,4.33
2023-01-31T19:48:39.929Z,4.25
2023-01-31T19:53:42.542Z,4.30
2023-01-31T19:58:44.569Z,4.42
2023-01-31T20:03:47.267Z,4.38
2023-01-31T20:08:54.954Z,4.45
2023-01-31T20:13:58.067Z,4.38
2023-01-31T20:19:06.345Z,4.42
2023-01-31T20:24:08.559Z,4.14
2023-01-31T20:29:12.303Z,3.92
2023-01-31T20:34:13.992Z,3.92
2023-01-31T20:39:15.615Z,3.83
2023-01-31T20:44:17.316Z,4.02
2023-01-31T20:49:21.313Z,4.08
2023-01-31T20:54:23.342Z,4.11
2023-01-31T20:59:25.099Z,4.24
2023-01-31T21:04:26.737Z,4.23
2023-01-31T21:09:28.957Z,4.23
2023-01-31T21:14:30.643Z,4.07
2023-01-31T21:19:32.275Z,3.73
2023-01-31T21:24:33.956Z,3.54
2023-01-31T21:29:35.608Z,3.57
2023-01-31T21:34:38.841Z,3.61
2023-01-31T21:39:42.265Z,3.45
2023-01-31T21:44:45.331Z,3.57
2023-01-31T21:49:47.177Z,3.83
2023-01-31T21:54:49.032Z,3.86
2023-01-31T21:59:50.844Z,3.95
2023-01-31T22:04:52.663Z,3.99
2023-01-31T22:09:54.471Z,4.12
2023-01-31T22:14:56.242Z,4.18
2023-01-31T22:19:57.897Z,4.28
2023-01-31T22:24:59.581Z,4.33
2023-01-31T22:30:15.224Z,4.41
2023-01-31T22:35:17.594Z,4.57
2023-01-31T22:40:19.696Z,4.61
2023-01-31T22:45:21.637Z,4.47
2023-01-31T22:50:23.568Z,4.70
2023-01-31T22:55:25.423Z,4.52
2023-01-31T23:00:27.102Z,4.56
2023-01-31T23:05:29.039Z,4.67
2023-01-31T23:10:30.664Z,4.52
2023-01-31T23:15:32.772Z,4.64
2023-01-31T23:20:34.509Z,4.43
2023-01-31T23:25:36.201Z,4.44
2023-01-31T23:30:38.098Z,4.48
2023-01-31T23:35:39.768Z,4.51
2023-01-31T23:40:41.663Z,4.48
2023-01-31T23:45:43.421Z,4.52
2023-01-31T23:50:45.102Z,4.59
2023-01-31T23:55:46.712Z,4.48
